Capitol Logistics 338


KMIA
Miami International Airport
Miami, Florida, US
KAUS
Austin-Bergstrom International Airport
Austin, Texas, US

Activity Log

Date Flight Route Aircraft Duration
12/16/2018 CPX302 WINCO2 WINCO CHRRI DOLIE Y280 LEV J86 IAH BITER8 B752 2h 25m
11/29/2018 CPX338 WINCO2 WINCO J73 LBV BAGGS Q102 LEV J86 IAH BITER8 B752 2h 54m
11/27/2018 CPX338 WINCO2 WINCO J73 LBV BAGGS Q102 LEV J86 IAH BITER8 B752 3h 08m

Route Details

Aircraft Information
Primary: Boeing 767-300BDSF
Backup: Not Available
Route Data
Distance: 990nm
Sched. Duration: 2h 45m
Avg. Duration: 2h 62m (+18m)
Times Flown: 3
Recm'd Route: WINCO2 WINCO J73 LBV BAGGS Q102 LEV J86 IAH BITER8
Planned Altitude: 38,000ft
Origin Wx: KMIA 061153Z 04004KT 10SM SCT026 BKN037 BKN055 24/22 A3000 RMK AO2 SLP158 60000 T02390217 10250 20233 53014
Dest. Wx: KAUS 061243Z 00000KT 5SM BR BCFG BKN014 OVC019 17/16 A3001 RMK AO2 T01670156
Notes:

Financial History
Total Freight: 165,760lbs
Average Load: 55,253lbs/flt
Fuel Used: 69,703lbs
Avg. Fuel Used: 23,234lbs/flt
Fuel Expense: $86,892
Avg. Fuel Expense: $28,964
Avg. Fuel Cost: $1.25/lbs
Total Gross Income: $208,858
Pilot Pay: $447
Total Expenses: $22,713
Total Revenue: $97,254
Average Revenue: $69,619.20